createdAt,value
2023-08-17T00:05:51.090Z,6.53
2023-08-17T00:11:54.510Z,6.32
2023-08-17T00:17:59.300Z,6.35
2023-08-17T00:24:02.727Z,6.50
2023-08-17T00:30:06.608Z,6.07
2023-08-17T00:36:11.406Z,5.90
2023-08-17T00:42:14.904Z,6.20
2023-08-17T00:48:18.336Z,5.57
2023-08-17T00:54:26.366Z,5.85
2023-08-17T01:00:29.923Z,6.45
2023-08-17T01:06:33.690Z,6.40
2023-08-17T01:12:40.896Z,6.57
2023-08-17T01:18:46.293Z,6.18
2023-08-17T01:24:51.451Z,6.20
2023-08-17T01:30:58.570Z,6.53
2023-08-17T01:37:04.185Z,6.88
2023-08-17T01:43:09.291Z,6.35
2023-08-17T01:49:12.768Z,6.90
2023-08-17T01:55:16.178Z,6.10
2023-08-17T02:01:21.144Z,6.75
2023-08-17T02:07:24.942Z,6.22
2023-08-17T02:13:28.614Z,6.80
2023-08-17T02:19:33.885Z,5.97
2023-08-17T02:25:40.425Z,5.85
2023-08-17T02:31:43.795Z,5.57
2023-08-17T02:37:48.733Z,5.88
2023-08-17T02:43:52.397Z,5.40
2023-08-17T02:49:55.810Z,5.03
2023-08-17T02:56:00.697Z,5.10
2023-08-17T03:02:04.165Z,4.63
2023-08-17T03:08:08.134Z,5.18
2023-08-17T03:14:12.916Z,4.47
2023-08-17T03:20:16.428Z,4.70
2023-08-17T03:26:19.821Z,4.68
2023-08-17T03:32:24.631Z,4.43
2023-08-17T03:38:28.097Z,4.47
2023-08-17T03:44:31.515Z,4.68
2023-08-17T03:50:36.375Z,4.38
2023-08-17T03:56:39.795Z,4.90
2023-08-17T04:02:43.724Z,4.00
2023-08-17T04:08:48.551Z,4.70
2023-08-17T04:14:51.955Z,4.28
2023-08-17T04:20:55.763Z,4.05
2023-08-17T04:27:00.556Z,4.47
2023-08-17T04:33:04.262Z,4.05
2023-08-17T04:39:08.481Z,4.20
2023-08-17T04:45:13.971Z,4.43
2023-08-17T04:51:17.412Z,3.92
2023-08-17T04:57:20.850Z,4.03
2023-08-17T05:09:35.363Z,4.47
2023-08-17T05:15:39.016Z,4.07
2023-08-17T05:21:44.046Z,3.72
2023-08-17T05:27:47.636Z,4.28
2023-08-17T05:33:51.015Z,3.60
2023-08-17T05:39:55.791Z,3.70
2023-08-17T05:46:00.339Z,3.90
2023-08-17T05:52:05.446Z,3.60
2023-08-17T05:58:10.213Z,3.50
2023-08-17T06:04:13.867Z,3.58
2023-08-17T06:10:17.346Z,3.17
2023-08-17T06:16:22.142Z,3.10
2023-08-17T06:22:25.644Z,3.67
2023-08-17T06:28:29.418Z,3.03
2023-08-17T06:34:36.724Z,3.10
2023-08-17T06:40:41.301Z,3.55
2023-08-17T06:46:45.168Z,3.08
2023-08-17T06:52:50.090Z,2.88
2023-08-17T06:58:53.494Z,3.13
2023-08-17T07:04:56.960Z,3.00
2023-08-17T07:11:01.802Z,3.03
2023-08-17T07:17:05.549Z,2.83
2023-08-17T07:23:09.209Z,3.47
2023-08-17T07:29:13.972Z,2.63
2023-08-17T07:35:17.393Z,2.72
2023-08-17T07:41:20.831Z,2.85
2023-08-17T07:47:26.018Z,2.90
2023-08-17T07:53:30.166Z,3.28
2023-08-17T07:59:33.620Z,3.50
2023-08-17T08:05:38.636Z,3.38
2023-08-17T08:11:42.046Z,3.08
2023-08-17T08:17:46.031Z,3.22
2023-08-17T08:23:50.897Z,3.00
2023-08-17T08:29:54.363Z,3.35
2023-08-17T08:35:57.928Z,3.10
2023-08-17T08:42:02.989Z,2.75
2023-08-17T08:48:07.047Z,3.20
2023-08-17T08:54:11.680Z,3.60
2023-08-17T09:00:17.500Z,3.65
2023-08-17T09:06:21.707Z,3.85
2023-08-17T09:12:38.781Z,3.47
2023-08-17T09:18:44.908Z,3.67
2023-08-17T09:24:50.374Z,4.15
2023-08-17T09:30:57.539Z,4.15
2023-08-17T09:37:06.438Z,4.38
2023-08-17T09:43:10.055Z,4.53
2023-08-17T09:49:13.523Z,4.30
2023-08-17T09:55:18.438Z,4.68
2023-08-17T10:01:22.020Z,4.97
2023-08-17T10:13:38.481Z,4.80
2023-08-17T10:19:46.276Z,5.35
2023-08-17T10:25:51.643Z,5.47
2023-08-17T10:31:56.560Z,4.90
2023-08-17T10:38:00.810Z,4.82
2023-08-17T10:44:04.365Z,4.55
2023-08-17T10:50:22.888Z,5.43
2023-08-17T10:56:29.667Z,5.07
2023-08-17T11:02:36.515Z,6.07
2023-08-17T11:08:43.466Z,5.18
2023-08-17T11:14:47.611Z,5.43
2023-08-17T11:20:51.125Z,5.78
2023-08-17T11:26:55.923Z,5.70
2023-08-17T11:33:00.058Z,4.88
2023-08-17T11:39:03.568Z,6.13
2023-08-17T11:45:11.161Z,6.30
2023-08-17T11:51:14.792Z,6.78
2023-08-17T11:57:18.235Z,7.68
2023-08-17T12:03:23.409Z,9.68
2023-08-17T12:09:26.879Z,8.38
2023-08-17T12:15:34.140Z,9.18
2023-08-17T12:21:38.989Z,7.32
2023-08-17T12:27:42.603Z,6.82
2023-08-17T12:33:46.012Z,7.45
2023-08-17T12:39:51.266Z,7.80
2023-08-17T12:45:54.716Z,6.93
2023-08-17T12:51:58.132Z,8.48
2023-08-17T12:58:03.037Z,7.57
2023-08-17T13:04:07.011Z,7.90
2023-08-17T13:10:10.629Z,7.82
2023-08-17T13:16:15.538Z,7.63
2023-08-17T13:22:19.020Z,11.77
2023-08-17T13:28:22.422Z,10.32
2023-08-17T13:34:27.253Z,11.05
2023-08-17T13:40:30.758Z,10.73
2023-08-17T13:46:34.259Z,10.60
2023-08-17T13:52:39.124Z,12.50
2023-08-17T13:58:42.572Z,11.40
2023-08-17T14:04:46.246Z,9.40
2023-08-17T14:10:51.117Z,11.82
2023-08-17T14:16:54.503Z,12.95
2023-08-17T14:22:58.062Z,13.38
2023-08-17T14:29:02.845Z,14.85
2023-08-17T14:35:12.350Z,15.23
2023-08-17T14:41:16.577Z,14.50
2023-08-17T14:47:21.828Z,16.75
2023-08-17T14:53:25.372Z,18.63
2023-08-17T14:59:28.854Z,19.65
2023-08-17T15:05:36.848Z,22.95
2023-08-17T15:11:40.265Z,24.70
2023-08-17T15:17:43.758Z,20.90
2023-08-17T15:23:48.807Z,20.23
2023-08-17T15:29:52.209Z,14.55
2023-08-17T15:35:56.195Z,11.85
2023-08-17T15:42:00.939Z,12.93
2023-08-17T15:48:04.394Z,13.63
2023-08-17T15:54:08.244Z,13.60
2023-08-17T16:00:13.980Z,16.20
2023-08-17T16:06:17.560Z,14.75
2023-08-17T16:12:21.037Z,12.40
2023-08-17T16:18:25.810Z,14.68
2023-08-17T16:24:29.342Z,15.10
2023-08-17T16:30:32.763Z,16.80
2023-08-17T16:36:37.534Z,16.30
2023-08-17T16:42:41.042Z,17.00
2023-08-17T16:48:44.439Z,15.63
2023-08-17T16:54:49.300Z,18.02
2023-08-17T17:00:52.742Z,19.02
2023-08-17T17:06:56.235Z,15.80
2023-08-17T17:13:01.018Z,14.45
2023-08-17T17:19:04.593Z,17.77
2023-08-17T17:25:08.687Z,14.57
2023-08-17T17:31:13.460Z,16.02
2023-08-17T17:37:18.551Z,14.50
2023-08-17T17:43:21.956Z,17.95
2023-08-17T17:49:26.757Z,18.85
2023-08-17T17:55:30.194Z,17.90
2023-08-17T18:01:33.991Z,12.57
2023-08-17T18:07:40.402Z,12.40
2023-08-17T18:13:43.867Z,11.23
2023-08-17T18:19:47.376Z,10.60
2023-08-17T18:25:52.206Z,11.18
2023-08-17T18:31:55.649Z,11.50
2023-08-17T18:37:59.108Z,12.13
2023-08-17T18:44:04.163Z,11.05
2023-08-17T18:50:08.297Z,12.52
2023-08-17T18:56:11.764Z,12.23
2023-08-17T19:02:17.937Z,12.63
2023-08-17T19:08:21.375Z,13.05
2023-08-17T19:14:24.906Z,11.93
2023-08-17T19:20:29.792Z,13.45
2023-08-17T19:26:33.266Z,14.75
2023-08-17T19:32:36.724Z,13.15
2023-08-17T19:38:41.575Z,13.55
2023-08-17T19:44:45.029Z,13.65
2023-08-17T19:50:48.547Z,13.75
2023-08-17T19:56:54.625Z,13.45
2023-08-17T20:02:58.399Z,16.23
2023-08-17T20:09:01.965Z,14.93
2023-08-17T20:15:07.871Z,16.52
2023-08-17T20:21:11.459Z,14.32
2023-08-17T20:27:14.904Z,14.93
2023-08-17T20:33:19.922Z,15.25
2023-08-17T20:39:23.348Z,14.95
2023-08-17T20:45:27.073Z,14.77
2023-08-17T20:51:31.880Z,13.88
2023-08-17T20:57:35.304Z,14.50
2023-08-17T21:03:38.746Z,14.18
2023-08-17T21:09:43.527Z,14.82
2023-08-17T21:15:47.297Z,14.57
2023-08-17T21:21:51.101Z,16.08
2023-08-17T21:27:55.949Z,15.48
2023-08-17T21:33:59.369Z,16.17
2023-08-17T21:40:03.559Z,16.33
2023-08-17T21:46:08.489Z,15.98
2023-08-17T21:52:11.924Z,16.42
2023-08-17T21:58:15.399Z,16.98
2023-08-17T22:04:20.432Z,16.92
2023-08-17T22:10:24.592Z,17.33
2023-08-17T22:16:28.053Z,16.42
2023-08-17T22:22:33.366Z,16.52
2023-08-17T22:28:36.759Z,16.48
2023-08-17T22:34:40.161Z,15.60
2023-08-17T22:40:45.078Z,15.82
2023-08-17T22:46:49.696Z,17.05
2023-08-17T22:52:55.214Z,16.90
2023-08-17T22:59:00.028Z,16.48
2023-08-17T23:05:03.486Z,16.30
2023-08-17T23:11:06.873Z,17.13
2023-08-17T23:17:11.690Z,16.00
2023-08-17T23:23:15.545Z,17.27
2023-08-17T23:29:19.008Z,17.30
2023-08-17T23:35:24.136Z,17.42
2023-08-17T23:41:28.548Z,17.48
2023-08-17T23:47:32.296Z,19.08
2023-08-17T23:53:37.272Z,19.15
2023-08-17T23:59:40.798Z,19.35
